Time;durP1;ratioP1;P1;durP2;ratioP2;P2;SDS_P1;SDS_P2;PMS_P1;PMS_P2;Temp;Humidity;BMP_temperature;BMP_pressure;BME280_temperature;BME280_humidity;BME280_pressure;Samples;Min_cycle;Max_cycle;Signal;HPM_P1;HPM_P2
2021/08/08 00:02:23;;;;;;;5.10;0.80;;;;;;;24.23;69.07;97360.81;5073541;28;20208;-74
2021/08/08 00:04:53;;;;;;;2.03;0.60;;;;;;;23.84;69.85;97349.59;5071382;28;20230;-72
2021/08/08 00:07:20;;;;;;;3.67;0.90;;;;;;;24.08;70.81;97343.97;5071205;28;20205;-73
2021/08/08 00:09:47;;;;;;;1.60;1.20;;;;;;;23.92;71.02;97348.91;5064267;28;20601;-72
2021/08/08 00:12:14;;;;;;;1.43;0.60;;;;;;;24.00;70.37;97363.75;5071913;28;20548;-75
2021/08/08 00:14:42;;;;;;;4.97;1.10;;;;;;;23.74;70.75;97366.13;5066260;28;20224;-73
2021/08/08 00:17:09;;;;;;;1.50;0.90;;;;;;;23.18;74.36;97364.63;5072121;28;20225;-75
2021/08/08 00:19:36;;;;;;;1.53;0.90;;;;;;;23.79;71.53;97373.38;5070879;28;20211;-73
2021/08/08 00:22:05;;;;;;;3.03;1.00;;;;;;;23.77;71.83;97383.78;5071256;28;20656;-74
2021/08/08 00:24:32;;;;;;;2.13;1.00;;;;;;;23.55;72.65;97386.34;5072194;28;20214;-73
2021/08/08 00:27:00;;;;;;;1.83;0.97;;;;;;;23.35;73.75;97392.16;5071065;28;20205;-75
2021/08/08 00:29:27;;;;;;;2.70;1.00;;;;;;;23.64;72.30;97387.28;5077735;28;20204;-74
2021/08/08 00:31:54;;;;;;;6.47;0.90;;;;;;;23.35;74.68;97386.69;5076340;28;20205;-74
2021/08/08 00:34:21;;;;;;;1.60;0.80;;;;;;;23.22;75.53;97384.72;5074485;28;20201;-72
2021/08/08 00:36:49;;;;;;;2.80;1.00;;;;;;;23.76;71.43;97387.63;5076253;28;20205;-74
2021/08/08 00:39:17;;;;;;;1.93;0.83;;;;;;;23.76;70.69;97387.63;5081511;28;20208;-75
2021/08/08 00:41:45;;;;;;;3.97;1.30;;;;;;;23.92;70.77;97389.00;5079950;28;20665;-73
2021/08/08 00:44:12;;;;;;;3.30;0.90;;;;;;;24.07;69.97;97391.44;5072262;28;20225;-73
2021/08/08 00:46:39;;;;;;;3.93;1.60;;;;;;;24.10;69.42;97385.38;5074375;28;20236;-73
2021/08/08 00:49:07;;;;;;;1.87;1.03;;;;;;;23.98;69.70;97383.16;5072555;28;20206;-73
2021/08/08 00:51:34;;;;;;;3.60;1.20;;;;;;;23.87;70.69;97391.78;5076122;28;20204;-74
2021/08/08 00:54:02;;;;;;;3.17;0.80;;;;;;;23.90;70.61;97393.91;5075908;28;20212;-74
2021/08/08 00:56:30;;;;;;;3.83;1.17;;;;;;;23.46;74.36;97394.38;5073341;28;20720;-73
2021/08/08 00:58:58;;;;;;;3.13;1.00;;;;;;;23.64;73.21;97398.19;5072954;28;20287;-73
2021/08/08 01:01:28;;;;;;;6.27;0.97;;;;;;;23.69;72.18;97398.91;5081229;28;20676;-73
2021/08/08 01:03:56;;;;;;;3.53;0.90;;;;;;;23.76;70.90;97412.16;5072057;28;20205;-72
2021/08/08 01:06:28;;;;;;;3.20;0.97;;;;;;;23.33;71.47;97408.78;5066408;28;20701;-73
2021/08/08 01:08:59;;;;;;;2.73;1.10;;;;;;;23.55;71.39;97416.31;5070196;28;20209;-72
2021/08/08 01:11:27;;;;;;;4.93;1.00;;;;;;;23.48;71.77;97413.97;5071677;28;20664;-74
2021/08/08 01:13:57;;;;;;;3.87;1.40;;;;;;;23.55;71.46;97416.31;5069754;28;20206;-74
2021/08/08 01:16:24;;;;;;;2.17;1.23;;;;;;;22.88;74.92;97412.16;5074159;28;20221;-74
2021/08/08 01:18:52;;;;;;;2.73;1.00;;;;;;;22.97;75.58;97421.28;5078472;28;20242;-74
2021/08/08 01:21:22;;;;;;;1.77;0.70;;;;;;;23.08;75.13;97421.91;5080208;28;20673;-74
2021/08/08 01:23:55;;;;;;;4.03;1.10;;;;;;;22.94;75.12;97421.84;5074981;28;20211;-73
2021/08/08 01:26:23;;;;;;;3.83;0.80;;;;;;;22.96;74.33;97421.56;5072521;28;20469;-74
2021/08/08 01:28:52;;;;;;;1.73;0.87;;;;;;;23.24;72.24;97424.16;5072517;28;20569;-73
2021/08/08 01:31:20;;;;;;;2.90;0.93;;;;;;;23.12;72.57;97440.13;5073540;28;20247;-73
2021/08/08 01:33:47;;;;;;;4.63;0.87;;;;;;;23.21;72.05;97437.56;5073505;28;20207;-73
2021/08/08 01:36:16;;;;;;;3.80;0.97;;;;;;;23.28;72.90;97438.00;5071538;28;20251;-75
2021/08/08 01:38:46;;;;;;;2.30;0.73;;;;;;;23.51;70.79;97442.53;5069325;28;20211;-74
2021/08/08 01:41:17;;;;;;;3.20;1.10;;;;;;;23.58;70.36;97442.97;5072338;28;20283;-72
2021/08/08 01:43:47;;;;;;;2.40;1.00;;;;;;;23.61;70.36;97440.44;5072433;28;20205;-74
2021/08/08 01:46:16;;;;;;;5.70;0.90;;;;;;;23.78;69.44;97440.72;5070541;28;20251;-73
2021/08/08 01:48:46;;;;;;;4.17;1.67;;;;;;;23.60;70.62;97435.28;5068340;28;20689;-75
2021/08/08 01:51:14;;;;;;;6.33;1.10;;;;;;;23.50;71.46;97438.19;5074646;28;20209;-75
2021/08/08 01:53:42;;;;;;;4.77;1.07;;;;;;;23.30;73.48;97441.25;5073717;28;20208;-74
2021/08/08 01:56:11;;;;;;;1.93;0.83;;;;;;;23.36;72.16;97435.41;5076117;28;20599;-74
2021/08/08 01:58:40;;;;;;;3.90;1.13;;;;;;;23.29;71.68;97434.16;5073548;28;20208;-75
2021/08/08 02:01:07;;;;;;;4.93;1.63;;;;;;;23.31;71.43;97435.47;5069588;28;20209;-74
2021/08/08 02:03:35;;;;;;;1.70;1.07;;;;;;;23.02;73.69;97450.31;5066755;28;20202;-73
2021/08/08 02:06:03;;;;;;;4.10;1.10;;;;;;;23.04;74.20;97442.66;5072492;28;20229;-75
2021/08/08 02:08:30;;;;;;;2.10;1.03;;;;;;;23.02;72.83;97444.88;5072758;28;20721;-75
2021/08/08 02:10:58;;;;;;;1.87;1.00;;;;;;;22.89;73.84;97445.59;5074768;28;20211;-75
2021/08/08 02:13:27;;;;;;;1.10;0.80;;;;;;;22.67;73.93;97450.78;5077392;28;20211;-74
2021/08/08 02:15:55;;;;;;;1.47;0.70;;;;;;;22.96;72.37;97443.34;5072788;28;20246;-75
2021/08/08 02:18:23;;;;;;;4.37;1.00;;;;;;;22.99;71.65;97450.91;5075241;28;20209;-75
2021/08/08 02:20:50;;;;;;;3.93;0.93;;;;;;;22.85;71.99;97458.97;5072823;28;20209;-75
2021/08/08 02:23:17;;;;;;;1.97;0.60;;;;;;;22.71;72.78;97460.00;5073511;28;20237;-75
2021/08/08 02:25:50;;;;;;;2.40;1.00;;;;;;;22.79;72.25;97457.44;5073015;28;20324;-75
2021/08/08 02:28:17;;;;;;;3.23;1.10;;;;;;;22.57;74.40;97462.63;5070370;28;20759;-74
2021/08/08 02:30:45;;;;;;;1.80;0.87;;;;;;;22.87;72.35;97464.13;5073109;28;20206;-75
2021/08/08 02:33:13;;;;;;;1.53;0.93;;;;;;;22.33;76.62;97458.22;5075685;28;20573;-74
2021/08/08 02:35:41;;;;;;;2.43;0.97;;;;;;;22.66;74.60;97460.06;5074324;28;20216;-75
2021/08/08 02:38:08;;;;;;;1.07;0.90;;;;;;;22.78;73.70;97461.25;5072113;28;20212;-75
2021/08/08 02:40:36;;;;;;;7.93;1.20;;;;;;;22.29;77.02;97466.16;5074977;28;20679;-74
2021/08/08 02:43:04;;;;;;;2.77;0.87;;;;;;;22.42;77.05;97467.38;5078991;28;20576;-74
2021/08/08 02:45:31;;;;;;;2.90;0.93;;;;;;;22.77;74.39;97470.53;5069209;28;20229;-75
2021/08/08 02:47:58;;;;;;;5.03;0.90;;;;;;;22.66;74.70;97466.31;5077138;28;20686;-75
2021/08/08 02:50:27;;;;;;;2.20;0.80;;;;;;;22.69;74.24;97467.63;5071940;28;20202;-74
2021/08/08 02:52:54;;;;;;;1.43;0.83;;;;;;;22.54;74.27;97470.56;5076666;28;20203;-74
2021/08/08 02:55:22;;;;;;;1.50;0.77;;;;;;;22.51;75.65;97473.84;5073416;28;20234;-74
2021/08/08 02:57:49;;;;;;;2.50;1.33;;;;;;;22.61;74.80;97466.38;5076281;28;20295;-75
2021/08/08 03:00:17;;;;;;;1.80;0.90;;;;;;;22.49;75.97;97476.03;5070067;28;20204;-74
2021/08/08 03:02:44;;;;;;;2.80;0.93;;;;;;;22.59;75.28;97484.09;5071894;28;20207;-73
2021/08/08 03:05:12;;;;;;;2.80;0.90;;;;;;;22.64;74.86;97484.03;5072553;28;20225;-75
2021/08/08 03:07:41;;;;;;;2.07;1.30;;;;;;;22.46;75.73;97492.94;5073571;28;20201;-75
2021/08/08 03:10:10;;;;;;;2.93;1.10;;;;;;;22.36;76.98;97496.53;5077727;28;20227;-74
2021/08/08 03:12:37;;;;;;;1.87;1.07;;;;;;;22.33;77.38;97502.53;5066776;28;20213;-75
2021/08/08 03:15:05;;;;;;;1.53;1.00;;;;;;;22.32;78.44;97500.94;5069251;28;20236;-72
2021/08/08 03:17:33;;;;;;;2.80;1.10;;;;;;;22.14;77.79;97517.16;5076052;28;20200;-73
2021/08/08 03:20:00;;;;;;;1.13;0.90;;;;;;;22.79;75.19;97527.34;5075812;28;20208;-75
2021/08/08 03:22:27;;;;;;;2.70;1.07;;;;;;;22.96;73.31;97533.16;5073622;28;20197;-73
2021/08/08 03:24:59;;;;;;;1.73;1.00;;;;;;;22.44;77.22;97519.59;5072527;28;20224;-74
2021/08/08 03:27:26;;;;;;;4.30;1.20;;;;;;;22.54;75.58;97530.38;5065185;28;20704;-75
2021/08/08 03:29:53;;;;;;;2.10;0.90;;;;;;;22.44;77.12;97533.19;5069405;28;20881;-75
2021/08/08 03:32:21;;;;;;;3.27;1.00;;;;;;;22.21;76.90;97528.50;5071290;28;20220;-74
2021/08/08 03:34:48;;;;;;;1.57;1.20;;;;;;;22.36;76.57;97540.06;5073723;28;20228;-75
2021/08/08 03:37:15;;;;;;;2.93;1.20;;;;;;;22.33;77.38;97548.78;5072781;28;20583;-75
2021/08/08 03:39:43;;;;;;;1.50;1.20;;;;;;;22.55;75.56;97543.66;5077849;28;20211;-76
2021/08/08 03:42:12;;;;;;;7.60;1.10;;;;;;;22.51;76.50;97533.66;5079527;28;20227;-75
2021/08/08 03:44:39;;;;;;;2.13;1.00;;;;;;;22.60;76.11;97537.38;5069851;28;20340;-74
2021/08/08 03:47:06;;;;;;;1.63;0.93;;;;;;;22.38;77.21;97540.56;5072359;28;20279;-75
2021/08/08 03:49:33;;;;;;;2.97;1.13;;;;;;;22.22;77.74;97544.53;5070704;28;20201;-75
2021/08/08 03:52:01;;;;;;;2.17;0.90;;;;;;;22.31;78.28;97552.88;5074098;28;20201;-74
2021/08/08 03:54:28;;;;;;;2.57;1.03;;;;;;;22.07;78.63;97547.38;5071182;28;20208;-74
2021/08/08 03:56:55;;;;;;;4.77;1.10;;;;;;;22.53;76.11;97550.50;5069989;28;20214;-73
2021/08/08 03:59:24;;;;;;;3.43;1.27;;;;;;;22.35;76.38;97551.22;5074777;28;20204;-74
2021/08/08 04:01:51;;;;;;;3.43;1.43;;;;;;;22.49;75.70;97552.19;5072235;28;20224;-72
2021/08/08 04:04:19;;;;;;;3.43;1.10;;;;;;;22.02;80.09;97544.72;5073416;28;20227;-72
2021/08/08 04:06:46;;;;;;;4.07;1.50;;;;;;;22.45;76.59;97560.09;5071943;28;20233;-72
2021/08/08 04:09:13;;;;;;;2.30;1.27;;;;;;;22.47;75.76;97563.34;5079940;28;20609;-73
2021/08/08 04:11:41;;;;;;;3.40;1.50;;;;;;;22.49;75.46;97557.63;5065372;28;20569;-71
2021/08/08 04:14:08;;;;;;;2.17;1.10;;;;;;;22.19;77.23;97555.16;5069094;28;20213;-72
2021/08/08 04:16:36;;;;;;;2.60;1.07;;;;;;;22.63;76.04;97561.28;5075629;28;20225;-73
2021/08/08 04:19:04;;;;;;;4.90;1.30;;;;;;;22.19;77.72;97569.56;5075614;28;20252;-74
2021/08/08 04:21:31;;;;;;;8.10;1.27;;;;;;;22.68;75.18;97580.25;5072991;28;20205;-74
2021/08/08 04:23:58;;;;;;;1.13;0.90;;;;;;;22.49;75.36;97584.84;5078255;28;20201;-73
2021/08/08 04:26:25;;;;;;;1.97;1.10;;;;;;;22.28;76.96;97586.06;5074634;28;20231;-73
2021/08/08 04:28:53;;;;;;;6.30;2.33;;;;;;;22.21;76.78;97600.00;5075682;28;20223;-73
2021/08/08 04:31:20;;;;;;;2.70;1.20;;;;;;;21.80;79.09;97601.41;5073853;28;20205;-73
2021/08/08 04:33:48;;;;;;;1.43;0.90;;;;;;;22.56;75.75;97607.88;5070303;28;20205;-73
2021/08/08 04:36:16;;;;;;;2.13;1.50;;;;;;;22.64;74.32;97599.06;5074015;28;20232;-72
2021/08/08 04:38:43;;;;;;;1.80;1.03;;;;;;;22.39;76.94;97593.84;5080230;28;20212;-73
2021/08/08 04:41:10;;;;;;;3.43;0.93;;;;;;;22.07;78.61;97590.03;5074372;28;20746;-74
2021/08/08 04:43:38;;;;;;;2.33;1.10;;;;;;;22.20;77.46;97601.06;5077181;28;20661;-73
2021/08/08 04:46:05;;;;;;;6.00;1.23;;;;;;;22.02;78.98;97603.66;5075842;28;20720;-73
2021/08/08 04:48:32;;;;;;;1.63;1.10;;;;;;;22.57;75.18;97604.06;5075432;28;20212;-73
2021/08/08 04:51:01;;;;;;;2.23;1.00;;;;;;;22.59;74.16;97612.72;5076540;28;20211;-72
2021/08/08 04:53:28;;;;;;;5.37;1.30;;;;;;;22.98;72.16;97607.97;5079476;28;20662;-73
2021/08/08 04:55:56;;;;;;;1.00;0.90;;;;;;;22.96;71.47;97615.59;5074905;28;20238;-72
2021/08/08 04:58:24;;;;;;;1.50;1.10;;;;;;;23.24;70.21;97625.66;5074485;28;20201;-72
2021/08/08 05:00:51;;;;;;;2.43;1.20;;;;;;;23.09;71.10;97628.53;5074659;28;20209;-71
2021/08/08 05:03:18;;;;;;;4.20;1.30;;;;;;;23.16;70.74;97622.75;5077729;28;20201;-72
2021/08/08 05:05:46;;;;;;;2.90;1.00;;;;;;;23.34;69.41;97611.91;5077547;28;20225;-72
2021/08/08 05:08:14;;;;;;;1.20;0.83;;;;;;;23.16;69.74;97615.38;5075198;28;20205;-73
2021/08/08 05:10:42;;;;;;;4.73;0.90;;;;;;;23.34;68.13;97611.91;5069085;28;20290;-72
2021/08/08 05:13:09;;;;;;;2.13;0.87;;;;;;;23.38;68.05;97612.13;5075489;28;20212;-72
2021/08/08 05:15:37;;;;;;;1.20;1.10;;;;;;;23.49;67.28;97616.34;5073584;28;20236;-72
2021/08/08 05:18:04;;;;;;;1.90;0.90;;;;;;;23.25;68.75;97612.88;5075705;28;20220;-73
2021/08/08 05:20:31;;;;;;;4.43;1.00;;;;;;;-139.38;100.00;63230.50;5072868;28;20201;-72
2021/08/08 05:22:58;;;;;;;3.17;1.00;;;;;;;23.17;68.99;97608.84;5075500;28;20195;-72
2021/08/08 05:25:27;;;;;;;3.50;0.73;;;;;;;23.45;66.57;97618.84;5080140;28;20233;-72
2021/08/08 05:27:54;;;;;;;2.73;0.90;;;;;;;23.63;65.69;97620.81;5071472;28;20225;-76
2021/08/08 05:30:22;;;;;;;1.60;0.90;;;;;;;23.93;62.92;97619.56;5073154;28;20210;-74
2021/08/08 05:32:49;;;;;;;3.13;0.90;;;;;;;23.49;64.54;97617.16;5076020;28;20209;-77
2021/08/08 05:35:17;;;;;;;3.83;0.70;;;;;;;23.65;66.08;97621.31;5072507;28;20228;-74
2021/08/08 05:37:44;;;;;;;1.23;0.73;;;;;;;23.73;65.73;97617.13;5064399;28;20221;-76
2021/08/08 05:40:12;;;;;;;1.07;0.70;;;;;;;24.40;62.47;97619.38;5078003;28;20207;-77
2021/08/08 05:42:47;;;;;;;2.53;0.90;;;;;;;24.46;62.06;97624.44;5074098;28;20208;-73
2021/08/08 05:45:14;;;;;;;0.90;0.70;;;;;;;23.88;65.70;97630.53;5071966;28;20568;-70
2021/08/08 05:47:42;;;;;;;3.23;0.80;;;;;;;24.09;64.03;97638.16;5073757;28;20217;-72
2021/08/08 05:50:09;;;;;;;2.93;0.70;;;;;;;23.68;67.00;97639.81;5072270;28;20216;-73
2021/08/08 05:52:37;;;;;;;4.63;0.80;;;;;;;23.86;62.77;97649.09;5069373;28;20567;-73
2021/08/08 05:55:05;;;;;;;1.93;0.60;;;;;;;24.91;60.31;97644.69;5070685;28;20229;-72
2021/08/08 05:57:32;;;;;;;2.20;0.73;;;;;;;24.77;58.93;97646.59;5074594;28;20201;-73
2021/08/08 06:00:01;;;;;;;2.60;0.70;;;;;;;25.17;58.25;97654.00;5074280;28;20207;-72
2021/08/08 06:02:28;;;;;;;3.40;0.73;;;;;;;25.03;57.90;97656.75;5070478;28;20198;-72
2021/08/08 06:04:55;;;;;;;1.27;0.60;;;;;;;24.89;57.67;97657.84;5071558;28;20236;-73
2021/08/08 06:07:22;;;;;;;1.60;0.70;;;;;;;24.52;58.92;97652.47;5072419;28;20255;-74
2021/08/08 06:09:50;;;;;;;1.70;0.50;;;;;;;25.20;57.59;97647.97;5072675;28;20295;-74
2021/08/08 06:12:17;;;;;;;2.37;0.90;;;;;;;24.87;58.32;97649.16;5072944;28;20210;-74
2021/08/08 06:14:44;;;;;;;2.03;0.70;;;;;;;25.32;55.99;97651.03;5072507;28;20234;-74
2021/08/08 06:17:13;;;;;;;2.33;0.90;;;;;;;24.68;57.84;97651.13;5072845;28;20208;-72
2021/08/08 06:19:40;;;;;;;4.07;0.60;;;;;;;25.46;56.50;97649.91;5072192;28;20204;-73
2021/08/08 06:22:08;;;;;;;2.23;0.60;;;;;;;24.52;58.99;97649.72;5071113;28;20214;-73
2021/08/08 06:24:35;;;;;;;2.73;0.90;;;;;;;24.65;60.11;97647.06;5071969;28;20294;-73
2021/08/08 06:27:02;;;;;;;0.93;0.70;;;;;;;24.92;58.39;97655.31;5071588;28;20228;-72
2021/08/08 06:29:30;;;;;;;2.67;0.70;;;;;;;26.08;52.90;97651.84;5072300;28;20207;-71
2021/08/08 06:31:57;;;;;;;2.40;0.60;;;;;;;25.84;54.00;97648.53;5070098;28;20205;-72
2021/08/08 06:34:26;;;;;;;4.57;1.23;;;;;;;25.87;53.18;97656.13;5064167;28;20212;-76
2021/08/08 06:36:53;;;;;;;1.07;0.63;;;;;;;25.97;51.75;97655.94;5070496;28;20777;-75
2021/08/08 06:39:20;;;;;;;2.77;0.80;;;;;;;25.33;54.22;97664.38;5071294;28;20224;-78
2021/08/08 06:41:48;;;;;;;5.30;0.97;;;;;;;25.55;52.68;97672.69;5073984;28;20205;-73
2021/08/08 06:44:15;;;;;;;1.93;0.60;;;;;;;26.38;50.85;97675.78;5073670;28;20201;-76
2021/08/08 06:46:42;;;;;;;3.30;0.60;;;;;;;26.33;51.31;97669.59;5074913;28;20701;-78
2021/08/08 06:49:10;;;;;;;1.73;0.90;;;;;;;26.29;51.88;97671.38;5072113;28;20210;-77
2021/08/08 06:51:38;;;;;;;4.20;0.90;;;;;;;26.21;50.65;97680.28;5070279;28;20201;-78
2021/08/08 06:54:06;;;;;;;1.80;0.70;;;;;;;26.44;50.79;97682.75;5071209;28;20209;-78
2021/08/08 06:56:33;;;;;;;2.67;0.97;;;;;;;26.37;50.01;97674.16;5071759;28;20224;-77
2021/08/08 06:59:00;;;;;;;1.03;0.73;;;;;;;26.45;48.58;97689.81;5071009;28;20614;-75
2021/08/08 07:01:28;;;;;;;1.50;0.60;;;;;;;26.53;47.96;97677.31;5071894;28;20209;-78
2021/08/08 07:03:55;;;;;;;1.80;0.70;;;;;;;26.65;48.17;97677.63;5070422;28;20580;-78
2021/08/08 07:06:22;;;;;;;2.43;0.87;;;;;;;26.47;48.87;97679.41;5074191;28;20227;-77
2021/08/08 07:08:51;;;;;;;1.53;0.70;;;;;;;26.74;48.86;97686.69;5076542;28;20205;-83
2021/08/08 07:11:18;;;;;;;2.23;0.70;;;;;;;27.18;47.34;97698.44;5073238;28;20229;-76
2021/08/08 07:13:46;;;;;;;1.57;1.00;;;;;;;26.20;50.37;97700.56;5072057;28;20217;-77
2021/08/08 07:16:13;;;;;;;2.97;0.90;;;;;;;27.22;47.62;97701.34;5071615;28;20233;-77
2021/08/08 07:18:43;;;;;;;1.70;0.80;;;;;;;27.35;47.15;97697.69;5068458;28;20204;-77
2021/08/08 07:21:10;;;;;;;5.37;1.00;;;;;;;27.03;46.66;97692.50;5072585;28;20209;-77
2021/08/08 07:23:39;;;;;;;4.17;1.03;;;;;;;27.64;45.47;97709.75;5069816;28;20211;-79
2021/08/08 07:26:11;;;;;;;5.03;1.33;;;;;;;28.00;44.61;97709.56;5078769;28;20661;-72
2021/08/08 07:28:39;;;;;;;1.87;0.90;;;;;;;27.36;45.39;97700.13;5074678;28;20322;-76
2021/08/08 07:31:06;;;;;;;3.40;1.00;;;;;;;27.36;46.27;97702.88;5074996;28;20296;-76
2021/08/08 07:33:33;;;;;;;1.70;0.80;;;;;;;27.84;43.72;97705.66;5074308;28;20212;-76
2021/08/08 07:36:01;;;;;;;3.50;0.70;;;;;;;28.50;41.89;97714.34;5062784;28;20232;-76
2021/08/08 07:38:28;;;;;;;1.27;0.70;;;;;;;27.90;43.61;97712.59;5071306;28;20201;-77
2021/08/08 07:40:55;;;;;;;2.20;0.90;;;;;;;27.57;42.60;97725.84;5071745;28;20206;-74
2021/08/08 07:43:24;;;;;;;4.87;0.90;;;;;;;28.33;40.77;97721.72;5071735;28;20202;-77
2021/08/08 07:45:51;;;;;;;1.17;0.80;;;;;;;28.52;40.81;97736.78;5069187;28;20299;-75
2021/08/08 07:48:18;;;;;;;2.83;0.80;;;;;;;27.84;43.11;97727.59;5071174;28;20226;-78
2021/08/08 07:50:46;;;;;;;1.40;0.70;;;;;;;27.46;43.02;97720.97;5065830;28;20205;-77
2021/08/08 07:53:13;;;;;;;5.87;0.90;;;;;;;27.35;43.69;97725.09;5069497;28;20645;-79
2021/08/08 07:55:40;;;;;;;2.63;0.73;;;;;;;27.68;43.15;97723.66;5072776;28;20236;-79
2021/08/08 07:58:08;;;;;;;2.13;0.73;;;;;;;28.31;41.61;97727.53;5072155;28;20676;-77
2021/08/08 08:00:37;;;;;;;1.37;0.90;;;;;;;27.72;43.56;97732.88;5073092;28;20667;-80
2021/08/08 08:03:04;;;;;;;1.90;1.30;;;;;;;27.73;42.71;97723.50;5075272;28;20209;-79
2021/08/08 08:05:31;;;;;;;1.10;0.83;;;;;;;27.47;42.85;97717.91;5075722;28;20226;-80
2021/08/08 08:07:59;;;;;;;2.37;0.73;;;;;;;27.90;40.87;97729.88;5077373;28;20601;-80
2021/08/08 08:10:26;;;;;;;3.13;1.00;;;;;;;28.67;39.21;97727.25;5078827;28;20201;-76
2021/08/08 08:12:53;;;;;;;2.90;1.10;;;;;;;28.33;38.85;97749.19;5080324;28;20280;-80
2021/08/08 08:15:21;;;;;;;2.23;0.67;;;;;;;29.18;37.92;97741.75;5085642;28;20293;-79
2021/08/08 08:17:51;;;;;;;3.17;0.90;;;;;;;28.43;39.48;97744.19;5075459;28;20438;-77
2021/08/08 08:20:19;;;;;;;3.10;0.70;;;;;;;29.25;36.18;97755.84;5077382;28;20240;-75
2021/08/08 08:22:46;;;;;;;2.10;0.70;;;;;;;28.49;38.31;97753.09;5068639;28;20219;-73
2021/08/08 08:25:13;;;;;;;1.93;0.67;;;;;;;29.54;37.79;97755.09;5067999;28;20319;-71
2021/08/08 08:27:42;;;;;;;3.00;1.20;;;;;;;29.17;37.48;97748.41;5069498;28;20270;-74
2021/08/08 08:30:10;;;;;;;1.87;0.70;;;;;;;28.74;39.41;97758.59;5070123;28;20212;-74
2021/08/08 08:32:37;;;;;;;3.77;0.90;;;;;;;28.80;39.41;97760.06;5071487;28;20203;-73
2021/08/08 08:35:07;;;;;;;3.30;0.80;;;;;;;28.82;38.94;97759.72;5069710;28;20562;-73
2021/08/08 08:37:34;;;;;;;1.30;0.70;;;;;;;27.43;40.89;97759.97;5071536;28;20201;-73
2021/08/08 08:40:04;;;;;;;1.33;0.80;;;;;;;26.95;40.90;97756.28;5070450;28;20207;-73
2021/08/08 08:42:33;;;;;;;2.47;0.90;;;;;;;28.64;39.01;97758.91;5071792;28;20197;-73
2021/08/08 08:45:00;;;;;;;3.13;0.57;;;;;;;27.96;37.79;97766.19;5071300;28;20218;-73
2021/08/08 08:47:28;;;;;;;1.60;0.90;;;;;;;28.29;37.61;97759.19;5071049;28;20229;-73
2021/08/08 08:49:59;;;;;;;1.83;0.77;;;;;;;28.00;39.49;97758.94;5073101;28;20201;-73
2021/08/08 08:52:29;;;;;;;3.13;0.70;;;;;;;28.27;38.34;97759.50;5067225;28;20683;-73
2021/08/08 08:54:57;;;;;;;3.47;1.10;;;;;;;27.67;40.04;97758.47;5074822;28;20224;-73
2021/08/08 08:57:25;;;;;;;1.87;0.87;;;;;;;28.36;38.79;97763.06;5074524;28;20204;-73
2021/08/08 08:59:52;;;;;;;2.50;0.80;;;;;;;27.77;38.17;97762.88;5074891;28;20206;-73
2021/08/08 09:02:19;;;;;;;1.40;0.70;;;;;;;28.30;37.40;97769.03;5074573;28;20193;-71
2021/08/08 09:04:47;;;;;;;4.27;0.80;;;;;;;28.11;37.93;97763.00;5074267;28;20309;-71
2021/08/08 09:07:14;;;;;;;1.17;0.80;;;;;;;28.81;37.11;97767.16;5074803;28;20208;-71
2021/08/08 09:09:43;;;;;;;3.60;0.90;;;;;;;29.20;37.72;97753.25;5074710;28;20209;-73
2021/08/08 09:12:10;;;;;;;1.53;0.90;;;;;;;30.26;34.46;97766.78;5074484;28;20208;-73
2021/08/08 09:14:38;;;;;;;2.03;0.77;;;;;;;28.83;36.80;97756.66;5073994;28;20715;-73
2021/08/08 09:17:05;;;;;;;2.50;0.90;;;;;;;29.18;34.05;97774.75;5074291;28;20201;-73
2021/08/08 09:19:34;;;;;;;3.43;1.03;;;;;;;30.15;33.53;97771.84;5074620;28;20217;-73
2021/08/08 09:22:02;;;;;;;2.05;0.73;;;;;;;30.07;33.03;97769.94;5074701;28;20266;-73
2021/08/08 09:24:31;;;;;;;1.92;0.88;;;;;;;31.04;31.95;97774.16;5074079;28;20204;-73
2021/08/08 09:27:05;;;;;;;2.08;1.10;;;;;;;31.08;31.67;97781.41;5074421;28;20564;-74
2021/08/08 09:29:33;;;;;;;2.50;0.70;;;;;;;31.49;31.67;97775.03;5074394;28;20578;-74
2021/08/08 09:32:00;;;;;;;2.55;1.00;;;;;;;30.57;32.62;97769.97;5058350;28;20201;-73
2021/08/08 09:34:30;;;;;;;3.40;0.93;;;;;;;31.03;31.20;97778.88;5073622;28;20684;-73
2021/08/08 09:36:59;;;;;;;3.13;1.15;;;;;;;30.52;32.44;97775.69;5073928;28;20221;-73
2021/08/08 09:39:28;;;;;;;2.53;0.90;;;;;;;30.29;32.26;97771.59;5073727;28;20637;-74
2021/08/08 09:42:07;;;;;;;1.48;0.80;;;;;;;31.20;30.56;97778.72;5074089;28;20212;-73
2021/08/08 09:44:35;;;;;;;2.17;0.85;;;;;;;30.72;30.82;97778.50;5073679;28;20568;-72
2021/08/08 09:47:02;;;;;;;3.03;0.80;;;;;;;29.36;33.07;97775.53;5073678;28;20554;-72
2021/08/08 09:49:29;;;;;;;0.93;0.70;;;;;;;30.65;31.66;97785.66;5074434;28;20233;-72
2021/08/08 09:51:56;;;;;;;2.50;0.98;;;;;;;31.05;31.30;97789.53;5074292;28;20197;-72
2021/08/08 09:54:24;;;;;;;2.10;1.00;;;;;;;30.70;31.99;97796.50;5073799;28;20648;-72
2021/08/08 09:57:01;;;;;;;0.77;0.65;;;;;;;31.33;31.61;97791.44;5073679;28;20944;-72
2021/08/08 09:59:30;;;;;;;3.08;0.98;;;;;;;31.41;30.57;97795.25;5066236;28;20200;-72
2021/08/08 10:01:57;;;;;;;3.00;0.98;;;;;;;30.53;31.73;97786.38;5072559;28;20251;-72
2021/08/08 10:04:25;;;;;;;3.33;0.95;;;;;;;30.51;31.02;97794.16;5073600;28;20200;-72
2021/08/08 10:06:54;;;;;;;1.40;0.80;;;;;;;30.39;30.29;97802.34;5073462;28;20206;-72
2021/08/08 10:09:22;;;;;;;2.95;0.90;;;;;;;30.42;31.22;97803.63;5065794;28;20221;-73
2021/08/08 10:11:52;;;;;;;1.10;0.85;;;;;;;31.34;30.33;97797.72;5073545;28;20208;-73
2021/08/08 10:14:20;;;;;;;2.60;0.85;;;;;;;29.57;31.08;97810.28;5073224;28;20209;-72
2021/08/08 10:16:49;;;;;;;3.22;0.85;;;;;;;29.75;31.71;97808.28;5073449;28;20241;-73
2021/08/08 10:19:21;;;;;;;1.92;0.95;;;;;;;29.82;31.59;97805.81;5073495;28;20193;-72
2021/08/08 10:21:49;;;;;;;1.25;0.88;;;;;;;30.23;30.67;97803.25;5073063;28;20553;-72
2021/08/08 10:24:19;;;;;;;3.67;0.80;;;;;;;30.07;31.02;97802.16;5073202;28;20205;-72
2021/08/08 10:26:47;;;;;;;3.00;1.00;;;;;;;30.11;30.51;97808.66;5072999;28;20221;-73
2021/08/08 10:29:15;;;;;;;1.40;0.70;;;;;;;30.63;30.32;97801.69;5073319;28;20228;-72
2021/08/08 10:31:44;;;;;;;3.88;0.77;;;;;;;30.25;30.57;97804.53;5073061;28;20208;-72
2021/08/08 10:34:13;;;;;;;0.98;0.65;;;;;;;30.47;31.13;97798.75;5073134;28;20205;-72
2021/08/08 10:36:40;;;;;;;2.22;1.10;;;;;;;30.53;31.13;97804.84;5072157;28;20706;-72
2021/08/08 10:39:10;;;;;;;5.53;1.17;;;;;;;30.54;30.76;97793.50;5072700;28;20216;-73
2021/08/08 10:41:38;;;;;;;3.95;0.88;;;;;;;30.57;30.38;97795.59;5072226;28;20205;-72
2021/08/08 10:44:06;;;;;;;2.30;1.02;;;;;;;29.97;31.33;97797.84;5072306;28;20201;-73
2021/08/08 10:46:45;;;;;;;2.40;0.95;;;;;;;29.40;31.36;97799.28;5072790;28;20225;-72
2021/08/08 10:49:14;;;;;;;1.98;0.93;;;;;;;30.96;29.61;97800.66;5072754;28;20221;-72
2021/08/08 10:51:41;;;;;;;2.80;1.05;;;;;;;30.27;29.24;97801.44;5072785;28;20650;-72
2021/08/08 10:54:09;;;;;;;1.80;0.75;;;;;;;30.53;29.29;97794.63;5072683;28;20224;-72
2021/08/08 10:56:44;;;;;;;1.85;0.93;;;;;;;30.86;29.21;97786.47;5072633;28;20221;-72
2021/08/08 10:59:16;;;;;;;1.90;0.80;;;;;;;31.14;28.67;97798.53;5072628;28;20238;-72
2021/08/08 11:01:44;;;;;;;1.48;0.82;;;;;;;31.40;28.27;97797.19;5073052;28;20213;-72
2021/08/08 11:04:13;;;;;;;2.03;0.88;;;;;;;31.78;28.17;97802.47;5073386;28;20209;-71
2021/08/08 11:06:43;;;;;;;1.17;0.80;;;;;;;31.58;28.18;97803.31;5072828;28;20221;-71
2021/08/08 11:09:10;;;;;;;2.08;0.80;;;;;;;30.92;29.30;97804.44;5071004;28;20225;-72
2021/08/08 11:11:38;;;;;;;2.35;0.73;;;;;;;29.81;30.87;97805.03;5072391;28;20559;-73
2021/08/08 11:14:14;;;;;;;2.08;0.90;;;;;;;31.84;27.80;97804.69;5072267;28;20747;-72
2021/08/08 11:16:42;;;;;;;2.67;1.00;;;;;;;33.16;26.05;97814.81;5072585;28;20727;-72
2021/08/08 11:19:10;;;;;;;1.60;0.93;;;;;;;31.52;28.78;97801.94;5071622;28;20206;-73
2021/08/08 11:21:41;;;;;;;1.50;0.70;;;;;;;32.36;25.78;97818.66;5053443;28;20252;-72
2021/08/08 11:24:11;;;;;;;2.30;0.85;;;;;;;32.42;26.56;97803.44;5072018;28;20201;-72
2021/08/08 11:26:38;;;;;;;1.33;0.70;;;;;;;31.96;26.40;97815.72;5073645;28;20220;-72
2021/08/08 11:29:07;;;;;;;4.07;0.80;;;;;;;31.25;27.63;97808.03;5074098;28;20232;-73
2021/08/08 11:31:37;;;;;;;1.42;1.05;;;;;;;30.59;27.48;97820.03;5073355;28;20230;-73
2021/08/08 11:34:06;;;;;;;0.95;0.85;;;;;;;31.78;27.61;97808.00;5074709;28;20274;-72
2021/08/08 11:36:35;;;;;;;1.33;0.88;;;;;;;32.59;27.01;97817.03;5067622;28;20250;-73
2021/08/08 11:39:06;;;;;;;2.10;0.90;;;;;;;32.04;27.64;97814.00;5073321;28;20201;-73